Portada
METAR-TAF:

METAR-TAF

Aeroports :

Aeroport de Beni Mellal

Beni Mellal, Marroc

latitud: 32-24-00N, longitud: 06-19-00W, altitud: 518 m

Observació

L'informe es va fer fa 50 minuts, a les 18:00 UTC
Vent 8 kt del Oest/Sud-Oest
Temperatura 30°C
Humitat 29%
Pressió 1017 hPa
Visibilitat 10 km o més
sense núvols per sota de 1500 mi sense presència de cumulonimbus.

METAR: GMMD 141800Z 24008KT CAVOK 30/10 Q1017 NOSIG

Hora: 19:50 (18:50 UTC)


TAF: manca

Observacions i pronòstics meteorològics de més de 4000 aeroports (METAR i TAF).

Les estacions disponibles són els punts grocs i vermells al mapa.

Posi el ratolí al punt desitjat per veure el nom de l'estació.

Feu clic per veure les observacions i els pronòstics meteorològics.

Per canviar el mapa: feu clic els botons verds amb una creu de color negre per apropar; al botó verd amb un guió per allunyar la imatge; o en les fletxes verdes per a mapes adjacents.


METAR-TAF: